Time,TemperatureF,DewpointF,PressureIn,WindDirection,WindDirectionDegrees,WindSpeedMPH,WindSpeedGustMPH,Humidity,HourlyPrecipIn,Conditions,Clouds,dailyrainin,SoftwareType,DateUTC
2013-05-14 03:51:00,52.0,43.0,30.01,SSW,201,0.0,0.0,70,0.00,,,0.00,,2013-05-14 08:51:00,
2013-05-14 04:22:00,52.0,43.0,30.01,SSW,201,0.0,0.0,70,0.00,,,0.00,,2013-05-14 09:22:00,
2013-05-14 04:32:00,52.0,43.0,30.01,SSW,201,0.0,0.0,70,0.00,,,0.00,,2013-05-14 09:32:00,
2013-05-14 04:44:00,52.0,43.0,30.01,SSW,201,0.0,0.0,70,0.00,,,0.00,,2013-05-14 09:44:00,
2013-05-14 10:22:00,70.0,56.0,29.92,ESE,107,3.0,5.0,62,0.00,,,0.00,,2013-05-14 15:22:00,
2013-05-14 10:33:00,71.0,56.0,29.90,South,188,3.0,3.0,59,0.00,,,0.00,,2013-05-14 15:33:00,
2013-05-14 10:43:00,74.0,57.0,29.90,ENE,78,2.0,10.0,56,0.00,,,0.00,,2013-05-14 15:43:00,
2013-05-14 10:53:00,74.0,57.0,29.90,ENE,78,2.0,10.0,56,0.00,,,0.00,,2013-05-14 15:53:00,
2013-05-14 11:02:00,75.0,58.0,29.90,South,188,3.0,8.0,56,0.00,,,0.00,,2013-05-14 16:02:00,
2013-05-14 11:12:00,75.0,58.0,29.90,South,188,3.0,8.0,56,0.00,,,0.00,,2013-05-14 16:12:00,
2013-05-14 11:23:00,76.0,58.0,29.89,South,180,1.0,4.0,53,0.00,,,0.00,,2013-05-14 16:23:00,
2013-05-14 11:33:00,76.0,58.0,29.88,SW,220,3.0,4.0,53,0.00,,,0.00,,2013-05-14 16:33:00,
2013-05-14 11:43:00,76.0,58.0,29.88,SW,220,3.0,4.0,53,0.00,,,0.00,,2013-05-14 16:43:00,
2013-05-14 11:54:00,78.0,60.0,29.88,SSW,198,4.0,5.0,54,0.00,,,0.00,,2013-05-14 16:54:00,
2013-05-14 12:03:00,78.0,60.0,29.87,South,170,3.0,5.0,54,0.00,,,0.00,,2013-05-14 17:03:00,
2013-05-14 12:13:00,78.0,60.0,29.87,South,170,3.0,5.0,54,0.00,,,0.00,,2013-05-14 17:13:00,
2013-05-14 12:24:00,79.0,59.0,29.87,SSE,155,3.0,9.0,51,0.00,,,0.00,,2013-05-14 17:24:00,
2013-05-14 12:32:00,79.0,59.0,29.86,SSW,211,4.0,9.0,50,0.00,,,0.00,,2013-05-14 17:32:00,
2013-05-14 12:43:00,79.0,59.0,29.86,SSW,211,4.0,9.0,50,0.00,,,0.00,,2013-05-14 17:43:00,
2013-05-14 12:52:00,80.0,60.0,29.86,SSE,150,5.0,8.0,50,0.00,,,0.00,,2013-05-14 17:52:00,
2013-05-14 13:02:00,81.0,60.0,29.85,SSE,163,3.0,8.0,49,0.00,,,0.00,,2013-05-14 18:02:00,
2013-05-14 13:12:00,81.0,60.0,29.85,SSE,163,3.0,8.0,49,0.00,,,0.00,,2013-05-14 18:12:00,
2013-05-14 13:22:00,81.0,59.0,29.84,SSE,161,3.0,4.0,48,0.00,,,0.00,,2013-05-14 18:22:00,
2013-05-14 13:32:00,82.0,59.0,29.83,SSW,202,10.0,10.0,45,0.00,,,0.00,,2013-05-14 18:32:00,
2013-05-14 13:42:00,82.0,59.0,29.83,SSW,202,10.0,10.0,45,0.00,,,0.00,,2013-05-14 18:42:00,
2013-05-14 13:52:00,83.0,59.0,29.82,SSE,161,6.0,9.0,45,0.00,,,0.00,,2013-05-14 18:52:00,
2013-05-14 14:01:00,83.0,59.0,29.81,SSW,195,4.0,4.0,44,0.00,,,0.00,,2013-05-14 19:01:00,
2013-05-14 14:12:00,83.0,59.0,29.81,SSW,195,4.0,4.0,44,0.00,,,0.00,,2013-05-14 19:12:00,
2013-05-14 14:22:00,84.0,58.0,29.81,SSW,207,3.0,4.0,41,0.00,,,0.00,,2013-05-14 19:22:00,
2013-05-14 14:32:00,84.0,59.0,29.80,SW,228,3.0,8.0,43,0.00,,,0.00,,2013-05-14 19:32:00,
2013-05-14 14:42:00,84.0,59.0,29.80,SW,228,3.0,8.0,43,0.00,,,0.00,,2013-05-14 19:42:00,
2013-05-14 14:52:00,85.0,59.0,29.80,WSW,241,3.0,5.0,42,0.00,,,0.00,,2013-05-14 19:52:00,
2013-05-14 15:02:00,84.0,58.0,29.80,SSE,160,3.0,10.0,41,0.00,,,0.00,,2013-05-14 20:02:00,
2013-05-14 15:11:00,84.0,58.0,29.80,SSE,160,3.0,10.0,41,0.00,,,0.00,,2013-05-14 20:11:00,
2013-05-14 15:23:00,85.0,58.0,29.79,SE,146,2.0,9.0,40,0.00,,,0.00,,2013-05-14 20:23:00,
2013-05-14 15:32:00,85.0,59.0,29.79,SE,129,3.0,10.0,41,0.00,,,0.00,,2013-05-14 20:32:00,
2013-05-14 15:41:00,86.0,61.0,29.78,South,186,3.0,4.0,43,0.00,,,0.00,,2013-05-14 20:41:00,
2013-05-14 15:44:00,85.0,59.0,29.79,SE,129,3.0,10.0,41,0.00,,,0.00,,2013-05-14 20:44:00,
2013-05-14 15:52:00,86.0,58.0,29.79,SW,222,4.0,4.0,39,0.00,,,0.00,,2013-05-14 20:52:00,
2013-05-14 16:03:00,86.0,61.0,29.78,South,186,3.0,4.0,43,0.00,,,0.00,,2013-05-14 21:03:00,
2013-05-14 16:12:00,86.0,61.0,29.78,South,186,3.0,4.0,43,0.00,,,0.00,,2013-05-14 21:12:00,
2013-05-14 16:23:00,86.0,61.0,29.78,South,186,3.0,4.0,43,0.00,,,0.00,,2013-05-14 21:23:00,
2013-05-14 16:33:00,86.0,61.0,29.78,South,186,3.0,4.0,43,0.00,,,0.00,,2013-05-14 21:33:00,
2013-05-14 22:22:00,76.0,60.0,29.77,SE,127,1.0,1.0,58,0.00,,,0.00,,2013-05-15 03:22:00,
2013-05-14 22:33:00,76.0,60.0,29.77,SE,127,1.0,1.0,58,0.00,,,0.00,,2013-05-15 03:33:00,
2013-05-14 22:44:00,75.0,60.0,29.77,SSW,194,1.0,4.0,60,0.00,,,0.00,,2013-05-15 03:44:00,
2013-05-14 22:54:00,75.0,60.0,29.77,SSW,194,1.0,4.0,60,0.00,,,0.00,,2013-05-15 03:54:00,
2013-05-14 23:03:00,75.0,60.0,29.77,South,169,3.0,3.0,60,0.00,,,0.00,,2013-05-15 04:03:00,
2013-05-14 23:12:00,75.0,60.0,29.77,South,169,3.0,3.0,60,0.00,,,0.00,,2013-05-15 04:12:00,
2013-05-14 23:24:00,75.0,60.0,29.77,SSW,192,2.0,5.0,60,0.00,,,0.00,,2013-05-15 04:24:00,
2013-05-14 23:33:00,75.0,61.0,29.77,SSE,157,1.0,3.0,61,0.00,,,0.00,,2013-05-15 04:33:00,
2013-05-14 23:42:00,75.0,61.0,29.77,SSE,157,1.0,3.0,61,0.00,,,0.00,,2013-05-15 04:42:00,
2013-05-14 23:52:00,74.0,60.0,29.77,SW,226,4.0,4.0,61,0.00,,,0.00,,2013-05-15 04:52:00,